logo
Search for airport 
image banner adimage banner adimage banner ad
image banner ad

VTK15 - Klong 15 Airport (Nakhon Nayok)

Located in Thanawana, Thailand

ICAO - , IATA -

Data provided by Airmate  

General information

Coordinates: N14°6'52" E100°56'59"
Elevation is 6 feet MSL.
 
View others Airports in Nakhon Nayok Province

Operational data

Special qualification required
Current time UTC:
Current local time:
METAR: VTBD 231700Z 23006KT 9999 FEW020 28/23 Q1007 NOSIG
TAF: TAF VTBD 231100Z 2312/2418 23008KT 9999 FEW020 TEMPO 2313/2318 VRB15KT 3000 TSRA FEW018CB SCT030 BKN100 TEMPO 2412/2416 VRB15KT 3000 TSRA FEW018CB SCT030 BKN100
View NOTAMs / SUP AIP / TFR affecting this airport [VIEW]
Communications frequencies: [VIEW]

Runways:

RWY identifierQFULength (ft)Width (ft)SurfaceLDA (ft)
0732810ASPH
2532810ASPH

Airport contact information

Other aviation service providers

Aviation club (not for profit)

Bangkok Aviation Center

Bangkok Aviation Center
cs@bacpilot.com+6637349899

Ongkarak Flying Club

Ongkarak Flying Club
+66818665810

Satellite view of VTK15